sensor_id;sensor_type;location;lat;lon;timestamp;temperature;humidity
48988;DHT22;34799;51.440;-2.534;2022-12-07T00:01:09;4.80;99.90
48988;DHT22;34799;51.440;-2.534;2022-12-07T00:03:38;4.80;99.90
48988;DHT22;34799;51.440;-2.534;2022-12-07T00:06:07;4.70;99.90
48988;DHT22;34799;51.440;-2.534;2022-12-07T00:08:35;4.80;99.90
48988;DHT22;34799;51.440;-2.534;2022-12-07T00:11:06;4.80;99.90
48988;DHT22;34799;51.440;-2.534;2022-12-07T00:13:34;4.80;99.90
48988;DHT22;34799;51.440;-2.534;2022-12-07T00:16:10;4.70;99.90
48988;DHT22;34799;51.440;-2.534;2022-12-07T00:18:38;4.70;99.90
48988;DHT22;34799;51.440;-2.534;2022-12-07T00:21:20;4.70;99.90
48988;DHT22;34799;51.440;-2.534;2022-12-07T00:23:50;4.70;99.90
48988;DHT22;34799;51.440;-2.534;2022-12-07T00:26:19;4.70;99.90
48988;DHT22;34799;51.440;-2.534;2022-12-07T00:28:55;4.60;99.90
48988;DHT22;34799;51.440;-2.534;2022-12-07T00:31:29;4.60;99.90
48988;DHT22;34799;51.440;-2.534;2022-12-07T00:33:57;4.60;99.90
48988;DHT22;34799;51.440;-2.534;2022-12-07T00:36:25;4.60;99.90
48988;DHT22;34799;51.440;-2.534;2022-12-07T00:38:54;5.80;99.90
48988;DHT22;34799;51.440;-2.534;2022-12-07T00:41:23;2.70;99.90
48988;DHT22;34799;51.440;-2.534;2022-12-07T00:43:52;4.50;99.90
48988;DHT22;34799;51.440;-2.534;2022-12-07T00:46:20;4.50;99.90
48988;DHT22;34799;51.440;-2.534;2022-12-07T00:48:48;4.50;99.90
48988;DHT22;34799;51.440;-2.534;2022-12-07T00:51:18;4.90;99.90
48988;DHT22;34799;51.440;-2.534;2022-12-07T00:53:46;4.50;99.90
48988;DHT22;34799;51.440;-2.534;2022-12-07T00:56:31;4.50;99.90
48988;DHT22;34799;51.440;-2.534;2022-12-07T00:59:01;4.50;99.90
48988;DHT22;34799;51.440;-2.534;2022-12-07T01:01:32;4.40;99.90
48988;DHT22;34799;51.440;-2.534;2022-12-07T01:03:59;4.50;99.90
48988;DHT22;34799;51.440;-2.534;2022-12-07T01:06:30;4.40;99.90
48988;DHT22;34799;51.440;-2.534;2022-12-07T01:08:59;4.40;99.90
48988;DHT22;34799;51.440;-2.534;2022-12-07T01:11:28;4.30;99.90
48988;DHT22;34799;51.440;-2.534;2022-12-07T01:13:58;4.50;99.90
48988;DHT22;34799;51.440;-2.534;2022-12-07T01:16:27;4.30;99.90
48988;DHT22;34799;51.440;-2.534;2022-12-07T01:18:55;4.30;99.90
48988;DHT22;34799;51.440;-2.534;2022-12-07T01:21:28;4.30;99.90
48988;DHT22;34799;51.440;-2.534;2022-12-07T01:23:57;4.30;99.90
48988;DHT22;34799;51.440;-2.534;2022-12-07T01:26:27;4.30;99.90
48988;DHT22;34799;51.440;-2.534;2022-12-07T01:28:54;4.20;99.90
48988;DHT22;34799;51.440;-2.534;2022-12-07T01:31:23;4.20;99.90
48988;DHT22;34799;51.440;-2.534;2022-12-07T01:33:56;4.20;99.90
48988;DHT22;34799;51.440;-2.534;2022-12-07T01:36:41;4.20;99.90
48988;DHT22;34799;51.440;-2.534;2022-12-07T01:39:09;4.20;99.90
48988;DHT22;34799;51.440;-2.534;2022-12-07T01:41:39;4.20;99.90
48988;DHT22;34799;51.440;-2.534;2022-12-07T01:44:23;4.20;99.90
48988;DHT22;34799;51.440;-2.534;2022-12-07T01:47:03;4.20;99.90
48988;DHT22;34799;51.440;-2.534;2022-12-07T01:49:46;4.10;99.90
48988;DHT22;34799;51.440;-2.534;2022-12-07T01:52:22;4.10;99.90
48988;DHT22;34799;51.440;-2.534;2022-12-07T01:54:54;4.20;99.90
48988;DHT22;34799;51.440;-2.534;2022-12-07T01:57:23;4.10;99.90
48988;DHT22;34799;51.440;-2.534;2022-12-07T01:59:52;4.10;99.90
48988;DHT22;34799;51.440;-2.534;2022-12-07T02:02:24;4.00;99.90
48988;DHT22;34799;51.440;-2.534;2022-12-07T02:04:54;4.00;99.90
48988;DHT22;34799;51.440;-2.534;2022-12-07T02:07:23;4.00;99.90
48988;DHT22;34799;51.440;-2.534;2022-12-07T02:09:50;4.00;99.90
48988;DHT22;34799;51.440;-2.534;2022-12-07T02:12:18;4.00;99.90
48988;DHT22;34799;51.440;-2.534;2022-12-07T02:14:47;4.00;99.90
48988;DHT22;34799;51.440;-2.534;2022-12-07T02:17:36;4.00;99.90
48988;DHT22;34799;51.440;-2.534;2022-12-07T02:31:22;3.90;99.90
48988;DHT22;34799;51.440;-2.534;2022-12-07T02:34:01;3.90;99.90
48988;DHT22;34799;51.440;-2.534;2022-12-07T02:36:36;4.20;99.90
48988;DHT22;34799;51.440;-2.534;2022-12-07T02:39:16;3.80;99.90
48988;DHT22;34799;51.440;-2.534;2022-12-07T02:41:50;3.80;99.90
48988;DHT22;34799;51.440;-2.534;2022-12-07T02:44:23;3.80;99.90
48988;DHT22;34799;51.440;-2.534;2022-12-07T02:46:59;3.80;99.90
48988;DHT22;34799;51.440;-2.534;2022-12-07T02:49:28;3.80;99.90
48988;DHT22;34799;51.440;-2.534;2022-12-07T02:51:56;3.70;99.90
48988;DHT22;34799;51.440;-2.534;2022-12-07T02:54:24;3.60;99.90
48988;DHT22;34799;51.440;-2.534;2022-12-07T03:07:39;3.50;99.90
48988;DHT22;34799;51.440;-2.534;2022-12-07T03:10:17;3.50;99.90
48988;DHT22;34799;51.440;-2.534;2022-12-07T03:13:14;3.50;99.90
48988;DHT22;34799;51.440;-2.534;2022-12-07T03:15:58;3.60;99.90
48988;DHT22;34799;51.440;-2.534;2022-12-07T03:18:30;3.60;99.90
48988;DHT22;34799;51.440;-2.534;2022-12-07T03:21:04;3.60;99.90
48988;DHT22;34799;51.440;-2.534;2022-12-07T03:23:34;3.60;99.90
48988;DHT22;34799;51.440;-2.534;2022-12-07T03:26:03;3.60;99.90
48988;DHT22;34799;51.440;-2.534;2022-12-07T03:28:36;3.60;99.90
48988;DHT22;34799;51.440;-2.534;2022-12-07T03:31:24;3.50;99.90
48988;DHT22;34799;51.440;-2.534;2022-12-07T03:34:01;3.50;99.90
48988;DHT22;34799;51.440;-2.534;2022-12-07T03:39:25;3.50;99.90
48988;DHT22;34799;51.440;-2.534;2022-12-07T03:41:55;3.50;99.90
48988;DHT22;34799;51.440;-2.534;2022-12-07T03:44:25;3.40;99.90
48988;DHT22;34799;51.440;-2.534;2022-12-07T03:57:33;3.50;99.90
48988;DHT22;34799;51.440;-2.534;2022-12-07T04:00:04;3.50;99.90
48988;DHT22;34799;51.440;-2.534;2022-12-07T04:02:38;3.40;99.90
48988;DHT22;34799;51.440;-2.534;2022-12-07T04:05:06;3.40;99.90
48988;DHT22;34799;51.440;-2.534;2022-12-07T04:07:33;3.40;99.90
48988;DHT22;34799;51.440;-2.534;2022-12-07T04:10:00;5.10;99.90
48988;DHT22;34799;51.440;-2.534;2022-12-07T04:12:28;3.50;99.90
48988;DHT22;34799;51.440;-2.534;2022-12-07T04:14:55;3.40;99.90
48988;DHT22;34799;51.440;-2.534;2022-12-07T04:17:22;3.40;99.90
48988;DHT22;34799;51.440;-2.534;2022-12-07T04:19:49;3.40;99.90
48988;DHT22;34799;51.440;-2.534;2022-12-07T04:22:16;3.40;99.90
48988;DHT22;34799;51.440;-2.534;2022-12-07T04:24:43;3.40;99.90
48988;DHT22;34799;51.440;-2.534;2022-12-07T04:29:38;3.40;99.90
48988;DHT22;34799;51.440;-2.534;2022-12-07T04:32:06;3.40;99.90
48988;DHT22;34799;51.440;-2.534;2022-12-07T04:34:33;3.30;99.90
48988;DHT22;34799;51.440;-2.534;2022-12-07T04:37:00;3.20;99.90
48988;DHT22;34799;51.440;-2.534;2022-12-07T04:39:29;3.10;99.90
48988;DHT22;34799;51.440;-2.534;2022-12-07T04:41:57;3.10;99.90
48988;DHT22;34799;51.440;-2.534;2022-12-07T04:44:26;3.10;99.90
48988;DHT22;34799;51.440;-2.534;2022-12-07T04:46:54;3.00;99.90
48988;DHT22;34799;51.440;-2.534;2022-12-07T04:49:21;3.00;99.90
48988;DHT22;34799;51.440;-2.534;2022-12-07T04:51:48;3.00;99.90
48988;DHT22;34799;51.440;-2.534;2022-12-07T04:54:18;3.00;99.90
48988;DHT22;34799;51.440;-2.534;2022-12-07T04:56:45;3.90;99.90
48988;DHT22;34799;51.440;-2.534;2022-12-07T04:59:13;3.00;99.90
48988;DHT22;34799;51.440;-2.534;2022-12-07T05:01:41;2.90;99.90
48988;DHT22;34799;51.440;-2.534;2022-12-07T05:04:08;3.00;99.90
48988;DHT22;34799;51.440;-2.534;2022-12-07T05:06:36;3.00;99.90
48988;DHT22;34799;51.440;-2.534;2022-12-07T05:09:04;3.00;99.90
48988;DHT22;34799;51.440;-2.534;2022-12-07T05:11:31;3.00;99.90
48988;DHT22;34799;51.440;-2.534;2022-12-07T05:14:20;3.10;99.90
48988;DHT22;34799;51.440;-2.534;2022-12-07T05:16:50;3.10;99.90
48988;DHT22;34799;51.440;-2.534;2022-12-07T05:19:18;3.10;99.90
48988;DHT22;34799;51.440;-2.534;2022-12-07T05:21:46;4.00;99.90
48988;DHT22;34799;51.440;-2.534;2022-12-07T05:24:15;3.10;99.90
48988;DHT22;34799;51.440;-2.534;2022-12-07T05:26:44;3.10;99.90
48988;DHT22;34799;51.440;-2.534;2022-12-07T05:29:14;4.40;99.90
48988;DHT22;34799;51.440;-2.534;2022-12-07T05:31:42;3.10;99.90
48988;DHT22;34799;51.440;-2.534;2022-12-07T05:34:11;4.30;99.90
48988;DHT22;34799;51.440;-2.534;2022-12-07T05:36:38;3.00;99.90
48988;DHT22;34799;51.440;-2.534;2022-12-07T05:39:07;3.10;99.90
48988;DHT22;34799;51.440;-2.534;2022-12-07T05:41:34;3.00;99.90
48988;DHT22;34799;51.440;-2.534;2022-12-07T05:44:20;3.00;99.90
48988;DHT22;34799;51.440;-2.534;2022-12-07T05:46:47;3.10;99.90
48988;DHT22;34799;51.440;-2.534;2022-12-07T05:49:14;3.10;99.90
48988;DHT22;34799;51.440;-2.534;2022-12-07T05:54:10;3.20;99.90
48988;DHT22;34799;51.440;-2.534;2022-12-07T05:56:37;3.20;99.90
48988;DHT22;34799;51.440;-2.534;2022-12-07T05:59:04;3.10;99.90
48988;DHT22;34799;51.440;-2.534;2022-12-07T06:02:01;3.00;99.90
48988;DHT22;34799;51.440;-2.534;2022-12-07T06:04:32;3.00;99.90
48988;DHT22;34799;51.440;-2.534;2022-12-07T06:06:59;3.10;99.90
48988;DHT22;34799;51.440;-2.534;2022-12-07T06:09:27;3.10;99.90
48988;DHT22;34799;51.440;-2.534;2022-12-07T06:11:56;3.20;99.90
48988;DHT22;34799;51.440;-2.534;2022-12-07T06:14:41;3.10;99.90
48988;DHT22;34799;51.440;-2.534;2022-12-07T06:17:09;3.20;99.90
48988;DHT22;34799;51.440;-2.534;2022-12-07T06:19:36;3.20;99.90
48988;DHT22;34799;51.440;-2.534;2022-12-07T06:22:04;3.20;99.90
48988;DHT22;34799;51.440;-2.534;2022-12-07T06:24:33;3.20;99.90
48988;DHT22;34799;51.440;-2.534;2022-12-07T06:27:00;3.20;99.90
48988;DHT22;34799;51.440;-2.534;2022-12-07T06:29:27;3.20;99.90
48988;DHT22;34799;51.440;-2.534;2022-12-07T06:31:54;3.20;99.90
48988;DHT22;34799;51.440;-2.534;2022-12-07T06:34:22;3.20;99.90
48988;DHT22;34799;51.440;-2.534;2022-12-07T06:36:51;3.20;99.90
48988;DHT22;34799;51.440;-2.534;2022-12-07T06:39:21;3.10;99.90
48988;DHT22;34799;51.440;-2.534;2022-12-07T06:41:49;3.10;99.90
48988;DHT22;34799;51.440;-2.534;2022-12-07T06:44:19;3.00;99.90
48988;DHT22;34799;51.440;-2.534;2022-12-07T06:46:46;3.10;99.90
48988;DHT22;34799;51.440;-2.534;2022-12-07T06:49:13;3.00;99.90
48988;DHT22;34799;51.440;-2.534;2022-12-07T06:51:40;3.00;99.90
48988;DHT22;34799;51.440;-2.534;2022-12-07T06:54:09;3.00;99.90
48988;DHT22;34799;51.440;-2.534;2022-12-07T06:56:37;3.80;99.90
48988;DHT22;34799;51.440;-2.534;2022-12-07T06:59:05;3.00;99.90
48988;DHT22;34799;51.440;-2.534;2022-12-07T07:01:34;4.10;99.90
48988;DHT22;34799;51.440;-2.534;2022-12-07T07:04:03;2.90;99.90
48988;DHT22;34799;51.440;-2.534;2022-12-07T07:06:30;3.00;99.90
48988;DHT22;34799;51.440;-2.534;2022-12-07T07:08:58;2.90;99.90
48988;DHT22;34799;51.440;-2.534;2022-12-07T07:11:25;3.00;99.90
48988;DHT22;34799;51.440;-2.534;2022-12-07T07:13:52;3.00;99.90
48988;DHT22;34799;51.440;-2.534;2022-12-07T07:16:22;3.00;99.90
48988;DHT22;34799;51.440;-2.534;2022-12-07T07:18:48;3.00;99.90
48988;DHT22;34799;51.440;-2.534;2022-12-07T07:21:16;3.00;99.90
48988;DHT22;34799;51.440;-2.534;2022-12-07T07:23:42;3.00;99.90
48988;DHT22;34799;51.440;-2.534;2022-12-07T07:26:10;3.00;99.90
48988;DHT22;34799;51.440;-2.534;2022-12-07T07:28:37;3.10;99.90
48988;DHT22;34799;51.440;-2.534;2022-12-07T07:31:04;3.00;99.90
48988;DHT22;34799;51.440;-2.534;2022-12-07T07:33:32;3.00;99.90
48988;DHT22;34799;51.440;-2.534;2022-12-07T07:35:59;3.00;99.90
48988;DHT22;34799;51.440;-2.534;2022-12-07T07:38:26;3.00;99.90
48988;DHT22;34799;51.440;-2.534;2022-12-07T07:40:53;2.90;99.90
48988;DHT22;34799;51.440;-2.534;2022-12-07T07:43:20;2.90;99.90
48988;DHT22;34799;51.440;-2.534;2022-12-07T07:45:47;2.90;99.90
48988;DHT22;34799;51.440;-2.534;2022-12-07T07:48:16;2.90;99.90
48988;DHT22;34799;51.440;-2.534;2022-12-07T07:50:43;3.00;99.90
48988;DHT22;34799;51.440;-2.534;2022-12-07T07:53:10;3.00;99.90
48988;DHT22;34799;51.440;-2.534;2022-12-07T07:55:37;3.00;99.90
48988;DHT22;34799;51.440;-2.534;2022-12-07T07:58:04;3.00;99.90
48988;DHT22;34799;51.440;-2.534;2022-12-07T08:00:31;3.00;99.90
48988;DHT22;34799;51.440;-2.534;2022-12-07T08:02:58;2.90;99.90
48988;DHT22;34799;51.440;-2.534;2022-12-07T08:05:27;2.90;99.90
48988;DHT22;34799;51.440;-2.534;2022-12-07T08:07:54;2.90;99.90
48988;DHT22;34799;51.440;-2.534;2022-12-07T08:10:21;2.90;99.90
48988;DHT22;34799;51.440;-2.534;2022-12-07T08:12:48;2.90;99.90
48988;DHT22;34799;51.440;-2.534;2022-12-07T08:15:38;2.90;99.90
48988;DHT22;34799;51.440;-2.534;2022-12-07T08:18:05;2.80;99.90
48988;DHT22;34799;51.440;-2.534;2022-12-07T08:20:34;2.90;99.90
48988;DHT22;34799;51.440;-2.534;2022-12-07T08:23:02;2.90;99.90
48988;DHT22;34799;51.440;-2.534;2022-12-07T08:25:31;3.50;99.90
48988;DHT22;34799;51.440;-2.534;2022-12-07T08:27:58;5.60;99.90
48988;DHT22;34799;51.440;-2.534;2022-12-07T08:30:28;2.90;99.90
48988;DHT22;34799;51.440;-2.534;2022-12-07T08:32:57;5.40;99.90
48988;DHT22;34799;51.440;-2.534;2022-12-07T08:35:24;2.90;99.90
48988;DHT22;34799;51.440;-2.534;2022-12-07T08:37:52;2.80;99.90
48988;DHT22;34799;51.440;-2.534;2022-12-07T08:40:19;2.90;99.90
48988;DHT22;34799;51.440;-2.534;2022-12-07T08:42:51;2.80;99.90
48988;DHT22;34799;51.440;-2.534;2022-12-07T08:45:19;3.60;99.90
48988;DHT22;34799;51.440;-2.534;2022-12-07T08:47:59;2.70;99.90
48988;DHT22;34799;51.440;-2.534;2022-12-07T08:50:29;2.90;99.90
48988;DHT22;34799;51.440;-2.534;2022-12-07T08:52:58;3.20;99.90
48988;DHT22;34799;51.440;-2.534;2022-12-07T08:55:28;3.20;99.90
48988;DHT22;34799;51.440;-2.534;2022-12-07T08:57:57;3.80;99.90
48988;DHT22;34799;51.440;-2.534;2022-12-07T09:00:26;3.80;99.90
48988;DHT22;34799;51.440;-2.534;2022-12-07T09:02:54;3.70;99.90
48988;DHT22;34799;51.440;-2.534;2022-12-07T09:05:21;3.60;99.90
48988;DHT22;34799;51.440;-2.534;2022-12-07T09:07:52;3.60;99.90
48988;DHT22;34799;51.440;-2.534;2022-12-07T09:10:22;3.50;99.90
48988;DHT22;34799;51.440;-2.534;2022-12-07T09:12:50;3.50;99.90
48988;DHT22;34799;51.440;-2.534;2022-12-07T09:15:17;3.50;99.90
48988;DHT22;34799;51.440;-2.534;2022-12-07T09:17:44;3.50;99.90
48988;DHT22;34799;51.440;-2.534;2022-12-07T09:20:13;3.50;99.90
48988;DHT22;34799;51.440;-2.534;2022-12-07T09:22:40;3.50;99.90
48988;DHT22;34799;51.440;-2.534;2022-12-07T09:25:07;3.50;99.90
48988;DHT22;34799;51.440;-2.534;2022-12-07T09:27:34;3.50;99.90
48988;DHT22;34799;51.440;-2.534;2022-12-07T09:30:02;3.50;99.90
48988;DHT22;34799;51.440;-2.534;2022-12-07T09:34:58;3.40;99.90
48988;DHT22;34799;51.440;-2.534;2022-12-07T09:37:25;3.40;99.90
48988;DHT22;34799;51.440;-2.534;2022-12-07T09:39:52;3.40;99.90
48988;DHT22;34799;51.440;-2.534;2022-12-07T09:42:34;3.40;99.90
48988;DHT22;34799;51.440;-2.534;2022-12-07T09:45:02;3.40;99.90
48988;DHT22;34799;51.440;-2.534;2022-12-07T09:47:32;3.40;99.90
48988;DHT22;34799;51.440;-2.534;2022-12-07T09:50:07;3.50;99.90
48988;DHT22;34799;51.440;-2.534;2022-12-07T09:52:38;3.50;99.90
48988;DHT22;34799;51.440;-2.534;2022-12-07T09:55:13;4.00;99.90
48988;DHT22;34799;51.440;-2.534;2022-12-07T09:57:41;3.60;99.90
48988;DHT22;34799;51.440;-2.534;2022-12-07T10:00:15;3.60;99.90
48988;DHT22;34799;51.440;-2.534;2022-12-07T10:03:00;3.60;99.90
48988;DHT22;34799;51.440;-2.534;2022-12-07T10:05:31;3.70;99.90
48988;DHT22;34799;51.440;-2.534;2022-12-07T10:07:59;3.70;99.90
48988;DHT22;34799;51.440;-2.534;2022-12-07T10:10:34;3.70;99.90
48988;DHT22;34799;51.440;-2.534;2022-12-07T10:13:08;4.40;99.90
48988;DHT22;34799;51.440;-2.534;2022-12-07T10:15:57;3.80;99.90
48988;DHT22;34799;51.440;-2.534;2022-12-07T10:18:40;3.80;99.90
48988;DHT22;34799;51.440;-2.534;2022-12-07T10:23:38;3.90;99.90
48988;DHT22;34799;51.440;-2.534;2022-12-07T10:26:28;3.60;99.90
48988;DHT22;34799;51.440;-2.534;2022-12-07T10:28:59;4.10;99.90
48988;DHT22;34799;51.440;-2.534;2022-12-07T10:31:27;4.20;99.90
48988;DHT22;34799;51.440;-2.534;2022-12-07T10:33:55;4.30;99.90
48988;DHT22;34799;51.440;-2.534;2022-12-07T10:36:30;4.40;99.90
48988;DHT22;34799;51.440;-2.534;2022-12-07T10:39:19;4.50;99.90
48988;DHT22;34799;51.440;-2.534;2022-12-07T10:44:28;4.50;99.90
48988;DHT22;34799;51.440;-2.534;2022-12-07T10:52:16;4.60;99.90
48988;DHT22;34799;51.440;-2.534;2022-12-07T11:00:23;4.70;99.90
48988;DHT22;34799;51.440;-2.534;2022-12-07T11:05:56;4.80;99.90
48988;DHT22;34799;51.440;-2.534;2022-12-07T11:14:03;5.70;99.90
48988;DHT22;34799;51.440;-2.534;2022-12-07T11:16:48;5.50;99.90
48988;DHT22;34799;51.440;-2.534;2022-12-07T11:19:32;5.10;99.90
48988;DHT22;34799;51.440;-2.534;2022-12-07T11:22:13;5.10;99.90
48988;DHT22;34799;51.440;-2.534;2022-12-07T11:25:18;5.10;99.90
48988;DHT22;34799;51.440;-2.534;2022-12-07T11:30:38;5.20;99.90
48988;DHT22;34799;51.440;-2.534;2022-12-07T11:33:19;5.10;99.90
48988;DHT22;34799;51.440;-2.534;2022-12-07T11:39:07;5.10;99.90
48988;DHT22;34799;51.440;-2.534;2022-12-07T11:41:39;5.10;99.90
48988;DHT22;34799;51.440;-2.534;2022-12-07T11:46:58;5.10;99.90
48988;DHT22;34799;51.440;-2.534;2022-12-07T11:49:40;5.30;99.90
48988;DHT22;34799;51.440;-2.534;2022-12-07T11:52:30;5.90;99.90
48988;DHT22;34799;51.440;-2.534;2022-12-07T11:55:00;5.50;99.90
48988;DHT22;34799;51.440;-2.534;2022-12-07T11:57:37;5.50;99.90
48988;DHT22;34799;51.440;-2.534;2022-12-07T12:00:15;5.50;99.90
48988;DHT22;34799;51.440;-2.534;2022-12-07T12:05:17;6.40;99.90
48988;DHT22;34799;51.440;-2.534;2022-12-07T12:07:48;6.00;99.90
48988;DHT22;34799;51.440;-2.534;2022-12-07T12:11:03;5.50;99.90
48988;DHT22;34799;51.440;-2.534;2022-12-07T12:14:00;5.50;99.90
48988;DHT22;34799;51.440;-2.534;2022-12-07T12:22:42;5.70;99.90
48988;DHT22;34799;51.440;-2.534;2022-12-07T12:25:29;5.80;99.90
48988;DHT22;34799;51.440;-2.534;2022-12-07T12:27:58;5.90;99.90
48988;DHT22;34799;51.440;-2.534;2022-12-07T12:30:34;5.90;99.90
48988;DHT22;34799;51.440;-2.534;2022-12-07T12:33:45;5.90;99.90
48988;DHT22;34799;51.440;-2.534;2022-12-07T12:39:22;6.00;99.90
48988;DHT22;34799;51.440;-2.534;2022-12-07T12:41:53;6.00;99.90
48988;DHT22;34799;51.440;-2.534;2022-12-07T12:46:52;6.00;99.90
48988;DHT22;34799;51.440;-2.534;2022-12-07T12:51:56;6.10;99.90
48988;DHT22;34799;51.440;-2.534;2022-12-07T12:54:26;6.10;99.90
48988;DHT22;34799;51.440;-2.534;2022-12-07T13:02:35;6.30;99.90
48988;DHT22;34799;51.440;-2.534;2022-12-07T13:18:37;6.00;99.90
48988;DHT22;34799;51.440;-2.534;2022-12-07T13:28:47;5.90;99.90
48988;DHT22;34799;51.440;-2.534;2022-12-07T13:33:47;6.00;99.90
48988;DHT22;34799;51.440;-2.534;2022-12-07T13:36:25;6.00;99.90
48988;DHT22;34799;51.440;-2.534;2022-12-07T13:38:55;6.00;99.90
48988;DHT22;34799;51.440;-2.534;2022-12-07T13:41:24;5.90;99.90
48988;DHT22;34799;51.440;-2.534;2022-12-07T13:44:05;5.80;99.90
48988;DHT22;34799;51.440;-2.534;2022-12-07T13:46:44;5.70;99.90
48988;DHT22;34799;51.440;-2.534;2022-12-07T13:49:45;5.80;99.90
48988;DHT22;34799;51.440;-2.534;2022-12-07T13:52:24;5.70;99.90
48988;DHT22;34799;51.440;-2.534;2022-12-07T13:55:05;5.60;99.90
48988;DHT22;34799;51.440;-2.534;2022-12-07T13:57:36;5.60;99.90
48988;DHT22;34799;51.440;-2.534;2022-12-07T14:00:13;5.60;99.90
48988;DHT22;34799;51.440;-2.534;2022-12-07T14:03:00;5.60;99.90
48988;DHT22;34799;51.440;-2.534;2022-12-07T14:05:29;5.50;99.90
48988;DHT22;34799;51.440;-2.534;2022-12-07T14:10:54;5.50;99.90
48988;DHT22;34799;51.440;-2.534;2022-12-07T14:13:37;5.40;99.90
48988;DHT22;34799;51.440;-2.534;2022-12-07T14:16:24;5.50;99.90
48988;DHT22;34799;51.440;-2.534;2022-12-07T14:18:52;5.50;99.90
48988;DHT22;34799;51.440;-2.534;2022-12-07T14:21:26;5.40;99.90
48988;DHT22;34799;51.440;-2.534;2022-12-07T14:24:16;5.40;99.90
48988;DHT22;34799;51.440;-2.534;2022-12-07T14:26:46;5.40;99.90
48988;DHT22;34799;51.440;-2.534;2022-12-07T14:31:55;5.50;99.90
48988;DHT22;34799;51.440;-2.534;2022-12-07T14:34:23;5.50;99.90
48988;DHT22;34799;51.440;-2.534;2022-12-07T14:36:51;5.50;99.90
48988;DHT22;34799;51.440;-2.534;2022-12-07T14:39:18;5.60;99.90
48988;DHT22;34799;51.440;-2.534;2022-12-07T14:41:45;5.50;99.90
48988;DHT22;34799;51.440;-2.534;2022-12-07T14:44:20;5.50;99.90
48988;DHT22;34799;51.440;-2.534;2022-12-07T14:46:50;5.30;99.90
48988;DHT22;34799;51.440;-2.534;2022-12-07T14:49:38;5.20;99.90
48988;DHT22;34799;51.440;-2.534;2022-12-07T14:52:08;5.10;99.90
48988;DHT22;34799;51.440;-2.534;2022-12-07T14:54:56;5.10;99.90
48988;DHT22;34799;51.440;-2.534;2022-12-07T14:57:23;5.30;99.90
48988;DHT22;34799;51.440;-2.534;2022-12-07T14:59:50;5.40;99.90
48988;DHT22;34799;51.440;-2.534;2022-12-07T15:02:17;5.40;99.90
48988;DHT22;34799;51.440;-2.534;2022-12-07T15:04:44;5.50;99.90
48988;DHT22;34799;51.440;-2.534;2022-12-07T15:07:19;5.60;99.90
48988;DHT22;34799;51.440;-2.534;2022-12-07T15:09:47;5.90;99.90
48988;DHT22;34799;51.440;-2.534;2022-12-07T15:12:15;5.50;99.90
48988;DHT22;34799;51.440;-2.534;2022-12-07T15:14:42;5.50;99.90
48988;DHT22;34799;51.440;-2.534;2022-12-07T15:17:11;5.50;99.90
48988;DHT22;34799;51.440;-2.534;2022-12-07T15:19:44;5.50;99.90
48988;DHT22;34799;51.440;-2.534;2022-12-07T15:22:12;5.60;99.90
48988;DHT22;34799;51.440;-2.534;2022-12-07T15:24:38;5.60;99.90
48988;DHT22;34799;51.440;-2.534;2022-12-07T15:27:06;5.60;99.90
48988;DHT22;34799;51.440;-2.534;2022-12-07T15:29:32;5.60;99.90
48988;DHT22;34799;51.440;-2.534;2022-12-07T15:32:01;5.60;99.90
48988;DHT22;34799;51.440;-2.534;2022-12-07T15:34:28;5.70;99.90
48988;DHT22;34799;51.440;-2.534;2022-12-07T15:36:57;5.70;99.90
48988;DHT22;34799;51.440;-2.534;2022-12-07T15:39:25;5.70;99.90
48988;DHT22;34799;51.440;-2.534;2022-12-07T15:41:53;5.70;99.90
48988;DHT22;34799;51.440;-2.534;2022-12-07T15:44:20;5.60;99.90
48988;DHT22;34799;51.440;-2.534;2022-12-07T15:47:06;5.60;99.90
48988;DHT22;34799;51.440;-2.534;2022-12-07T15:49:33;5.50;99.90
48988;DHT22;34799;51.440;-2.534;2022-12-07T15:52:00;5.40;99.90
48988;DHT22;34799;51.440;-2.534;2022-12-07T15:54:29;5.40;99.90
48988;DHT22;34799;51.440;-2.534;2022-12-07T15:56:56;5.40;99.90
48988;DHT22;34799;51.440;-2.534;2022-12-07T15:59:23;5.50;99.90
48988;DHT22;34799;51.440;-2.534;2022-12-07T16:01:52;5.50;99.90
48988;DHT22;34799;51.440;-2.534;2022-12-07T16:04:19;5.50;99.90
48988;DHT22;34799;51.440;-2.534;2022-12-07T16:06:48;6.00;99.90
48988;DHT22;34799;51.440;-2.534;2022-12-07T16:09:18;5.50;99.90
48988;DHT22;34799;51.440;-2.534;2022-12-07T16:11:45;5.50;99.90
48988;DHT22;34799;51.440;-2.534;2022-12-07T16:14:12;5.40;99.90
48988;DHT22;34799;51.440;-2.534;2022-12-07T16:16:41;5.90;99.90
48988;DHT22;34799;51.440;-2.534;2022-12-07T16:19:09;5.30;99.90
48988;DHT22;34799;51.440;-2.534;2022-12-07T16:21:37;5.30;99.90
48988;DHT22;34799;51.440;-2.534;2022-12-07T16:24:05;5.30;99.90
48988;DHT22;34799;51.440;-2.534;2022-12-07T16:26:33;5.30;99.90
48988;DHT22;34799;51.440;-2.534;2022-12-07T16:29:00;5.20;99.90
48988;DHT22;34799;51.440;-2.534;2022-12-07T16:31:29;5.20;99.90
48988;DHT22;34799;51.440;-2.534;2022-12-07T16:33:57;5.20;99.90
48988;DHT22;34799;51.440;-2.534;2022-12-07T16:36:26;5.10;99.90
48988;DHT22;34799;51.440;-2.534;2022-12-07T16:39:13;5.30;99.90
48988;DHT22;34799;51.440;-2.534;2022-12-07T16:41:40;5.10;99.90
48988;DHT22;34799;51.440;-2.534;2022-12-07T16:44:10;5.80;99.90
48988;DHT22;34799;51.440;-2.534;2022-12-07T16:46:39;5.00;99.90
48988;DHT22;34799;51.440;-2.534;2022-12-07T16:49:09;5.00;99.90
48988;DHT22;34799;51.440;-2.534;2022-12-07T16:51:38;4.90;99.90
48988;DHT22;34799;51.440;-2.534;2022-12-07T16:54:06;4.90;99.90
48988;DHT22;34799;51.440;-2.534;2022-12-07T16:56:33;4.90;99.90
48988;DHT22;34799;51.440;-2.534;2022-12-07T16:59:00;4.90;99.90
48988;DHT22;34799;51.440;-2.534;2022-12-07T17:01:29;4.80;99.90
48988;DHT22;34799;51.440;-2.534;2022-12-07T17:03:58;4.80;99.90
48988;DHT22;34799;51.440;-2.534;2022-12-07T17:06:27;4.80;99.90
48988;DHT22;34799;51.440;-2.534;2022-12-07T17:08:57;4.80;99.90
48988;DHT22;34799;51.440;-2.534;2022-12-07T17:11:27;4.80;99.90
48988;DHT22;34799;51.440;-2.534;2022-12-07T17:13:55;4.80;99.90
48988;DHT22;34799;51.440;-2.534;2022-12-07T17:16:42;4.70;99.90
48988;DHT22;34799;51.440;-2.534;2022-12-07T17:19:12;4.70;99.90
48988;DHT22;34799;51.440;-2.534;2022-12-07T17:21:41;4.70;99.90
48988;DHT22;34799;51.440;-2.534;2022-12-07T17:24:11;4.70;99.90
48988;DHT22;34799;51.440;-2.534;2022-12-07T17:26:39;4.70;99.90
48988;DHT22;34799;51.440;-2.534;2022-12-07T17:29:07;5.80;99.90
48988;DHT22;34799;51.440;-2.534;2022-12-07T17:31:37;4.70;99.90
48988;DHT22;34799;51.440;-2.534;2022-12-07T17:34:12;4.60;99.90
48988;DHT22;34799;51.440;-2.534;2022-12-07T17:36:39;4.60;99.90
48988;DHT22;34799;51.440;-2.534;2022-12-07T17:39:12;4.70;99.90
48988;DHT22;34799;51.440;-2.534;2022-12-07T17:41:40;4.50;99.90
48988;DHT22;34799;51.440;-2.534;2022-12-07T17:44:27;4.50;99.90
48988;DHT22;34799;51.440;-2.534;2022-12-07T17:46:56;6.20;99.90
48988;DHT22;34799;51.440;-2.534;2022-12-07T17:49:28;4.40;99.90
48988;DHT22;34799;51.440;-2.534;2022-12-07T17:51:57;4.90;99.90
48988;DHT22;34799;51.440;-2.534;2022-12-07T17:54:43;4.40;99.90
48988;DHT22;34799;51.440;-2.534;2022-12-07T17:57:10;4.30;99.90
48988;DHT22;34799;51.440;-2.534;2022-12-07T17:59:37;5.00;99.90
48988;DHT22;34799;51.440;-2.534;2022-12-07T18:02:04;4.30;99.90
48988;DHT22;34799;51.440;-2.534;2022-12-07T18:04:32;4.30;99.90